Flight Track Log - Related Links

Times and Time Zones

All times are in EDT time to prevent confusion due to time zone crossing. See the JBU33 flight status page for this flight to view local times or setup timezone preferences in your user account.

Time Position Orientation Groundspeed Altitude Reporting Facility
EDT Latitude Longitude Course Direction KTS MPH feet Rate Location/Type
Thu 01:14:05 PM 44.2819 -73.1853 196° South 257 296 8,700  Level Boston Center
Thu 01:15:00 PM 44.0712 -73.2983 195° South  Level FlightAware Approximate
Thu 01:15:05 PM 44.2006 -73.1728 174° South 278 320 10,800  Level Boston Center
Thu 01:16:00 PM 43.9912 -73.3252 194° South  Level FlightAware Approximate
Thu 01:16:05 PM 44.1008 -73.1569 173° South 334 384 13,400  Level Boston Center
Thu 01:17:00 PM 43.9365 -73.3434 193° South  Level FlightAware Approximate
Thu 01:17:03 PM 44.0194 -73.1417 172° South 361 415 15,700  Level Boston Center
Thu 01:18:00 PM 43.8821 -73.3639 196° South  Level FlightAware Approximate
Thu 01:19:00 PM 43.8280 -73.3856 196° South  Level FlightAware Approximate
Thu 01:19:04 PM 43.8069 -73.1764 187° South 374 430 22,000  Level Boston Center
Thu 01:20:04 PM 43.7150 -73.2069 194° South 351 404 23,800 992 Climbing Boston Center
Thu 01:21:05 PM 43.6083 -73.2372 192° South 365 420 24,000 694 Climbing Boston Center
Thu 01:22:05 PM 43.4914 -73.2728 192° South 401 461 25,200 992 Climbing Boston Center
Thu 01:23:06 PM 43.3744 -73.3114 193° South 428 493 26,000 407 Climbing Boston Center
Thu 01:24:03 PM 43.2533 -73.3494 193° South 440 506 26,000  Level Boston Center
Thu 01:25:03 PM 43.1197 -73.3872 192° South 445 512 26,000  Level Boston Center
Thu 01:26:04 PM 43.0006 -73.4222 192° South 452 520 26,000  Level Boston Center
Thu 01:27:04 PM 42.8794 -73.4600 193° South 447 514 26,000  Level Boston Center
Thu 01:28:05 PM 42.7728 -73.4981 195° South 447 514 26,000  Level Boston Center
Thu 01:29:03 PM 42.6514 -73.5325 192° South 447 514 26,000  Level Boston Center
Thu 01:30:04 PM 42.5322 -73.5700 193° South 447 514 26,000  Level Boston Center
Thu 01:31:05 PM 42.4111 -73.6072 193° South 447 514 26,000  Level Boston Center
Thu 01:32:03 PM 42.2942 -73.6303 188° South 447 514 26,000  Level Boston Center
Thu 01:33:03 PM 42.1728 -73.6700 194° South 447 514 26,000  Level Boston Center
Thu 01:34:06 PM 42.0494 -73.7150 195° South 447 514 26,000  Level Boston Center
Thu 01:35:17 PM 41.9281 -73.7489 192° South 453 521 26,000 -839 Level Boston Center
Thu 01:37:19 PM 41.6642 -73.8756 200° South 436 502 23,300 -1,410 Descending New York Center
Thu 01:38:20 PM 41.5667 -73.9431 207° Southwest 416 479 21,700 -1,627 Descending New York Center
Thu 01:39:17 PM 41.4669 -74.0103 207° Southwest 410 472 20,100 -857 Descending New York Center
Thu 01:40:19 PM 41.3650 -74.0828 208° Southwest 415 478 20,000 -49 Descending New York Center
Thu 01:41:20 PM 41.2647 -74.1689 213° Southwest 426 490 20,000 -50 Level New York Center
Thu 01:42:20 PM 41.1753 -74.2414 211° Southwest 431 496 19,900 -508 Descending New York Center
Thu 01:43:18 PM 41.0642 -74.2606 187° South 409 471 19,000 -458 Descending New York Center
Thu 01:44:18 PM 40.9522 -74.1722 149° Southeast 390 449 19,000  Level New York Center
Thu 01:45:19 PM 40.8903 -74.0842 133° Southeast 375 432 19,000  Level New York Center
Thu 01:46:19 PM 40.8289 -73.9661 124° Southeast 359 413 19,000 -550 Level New York Center
Thu 01:47:19 PM 40.7819 -73.8486 118° Southeast 359 413 17,900 -1,450 Descending New York Center
Thu 01:48:19 PM 40.7433 -73.7319 114° Southeast 354 407 16,100 -1,950 Descending New York Center
Thu 01:49:19 PM 40.6764 -73.6606 141° Southeast 298 343 14,000 -2,182 Descending New York Center
Thu 01:50:20 PM 40.5917 -73.6297 165° South 308 354 11,700 -2,067 Descending New York Center
Thu 01:51:18 PM 40.5228 -73.6378 185° South 303 349 9,900 -2,085 Descending New York Center
Thu 01:52:18 PM 40.4425 -73.6808 202° Southwest 283 326 7,600 -2,164 Descending New York Center
Thu 01:53:20 PM 40.3811 -73.7192 205° Southwest 283 326 5,500 -1,700 Descending New York Center
Thu 01:54:18 PM 40.3642 -73.8108 256° West 243 280 4,200 -763 Descending New York Center
Thu 01:55:18 PM 40.3789 -73.8825 285° West 234 269 4,000 -446 Descending New York Center
Thu 01:56:19 PM 40.4106 -73.9492 302° West 207 238 3,300 -496 Descending New York Center
Thu 01:57:19 PM 40.4492 -73.9836 326° Northwest 190 219 3,000 -151 Descending New York Center
Thu 01:58:18 PM 40.5056 -73.9808 North 174 200 3,000 -300 Level New York Center
Thu 01:59:39 PM 40.5667 -73.9333 31° Northeast 186 214 2,300 -612 Descending New York TRACON
Thu 02:00:45 PM 40.6167 -73.9000 27° Northeast 188 216 1,500 -571 Descending New York TRACON
Thu 02:01:45 PM 40.6500 -73.8500 49° Northeast 164 189 1,100 -500 Descending New York TRACON
Thu 02:02:45 PM 40.6667 -73.8167 57° Northeast 145 167 500 -600 Descending New York TRACON

Login

Don't have an account? Register now (free) for customized features, flight alerts, and more!